createdAt,value
2019-03-06T00:00:56.265Z,86.90
2019-03-06T00:03:29.331Z,87.10
2019-03-06T00:06:00.745Z,87.50
2019-03-06T00:08:31.455Z,87.70
2019-03-06T00:11:02.799Z,87.60
2019-03-06T00:13:34.600Z,87.70
2019-03-06T00:16:05.854Z,88.00
2019-03-06T00:18:37.006Z,88.30
2019-03-06T00:21:45.711Z,88.60
2019-03-06T00:25:03.360Z,88.40
2019-03-06T00:27:34.570Z,88.80
2019-03-06T00:30:08.364Z,89.40
2019-03-06T00:32:39.896Z,90.00
2019-03-06T00:35:15.798Z,90.20
2019-03-06T00:37:46.830Z,89.70
2019-03-06T00:40:44.104Z,90.00
2019-03-06T00:43:15.802Z,90.20
2019-03-06T00:45:47.318Z,90.90
2019-03-06T00:48:19.404Z,91.20
2019-03-06T00:50:50.695Z,91.30
2019-03-06T00:53:22.602Z,91.70
2019-03-06T00:55:53.566Z,91.90
2019-03-06T00:58:25.194Z,92.00
2019-03-06T01:00:56.315Z,92.20
2019-03-06T01:03:27.663Z,92.10
2019-03-06T01:05:59.417Z,92.30
2019-03-06T01:08:31.811Z,92.30
2019-03-06T01:11:05.778Z,92.30
2019-03-06T01:13:40.326Z,92.40
2019-03-06T01:16:14.671Z,92.70
2019-03-06T01:18:46.625Z,93.10
2019-03-06T01:21:18.489Z,93.80
2019-03-06T01:23:59.418Z,93.90
2019-03-06T01:26:30.758Z,94.20
2019-03-06T01:29:01.833Z,94.30
2019-03-06T01:31:33.650Z,95.00
2019-03-06T01:34:23.513Z,95.50
2019-03-06T01:37:28.079Z,95.80
2019-03-06T01:40:23.238Z,96.00
2019-03-06T01:43:15.536Z,96.20
2019-03-06T01:45:46.694Z,96.40
2019-03-06T01:48:17.927Z,96.30
2019-03-06T01:50:49.277Z,96.10
2019-03-06T01:53:20.915Z,95.90
2019-03-06T01:55:52.010Z,95.70
2019-03-06T01:58:22.656Z,95.80
2019-03-06T02:00:54.843Z,95.80
2019-03-06T03:02:35.526Z,99.90
2019-03-06T03:05:16.292Z,99.90
2019-03-06T03:07:47.014Z,99.90
2019-03-06T03:10:18.677Z,99.90
2019-03-06T03:12:49.382Z,99.90
2019-03-06T03:15:20.992Z,99.90
2019-03-06T03:17:52.475Z,99.90
2019-03-06T03:20:22.765Z,99.90
2019-03-06T03:22:54.189Z,99.90
2019-03-06T03:25:25.229Z,99.90
2019-03-06T03:28:08.193Z,99.90
2019-03-06T03:30:39.660Z,99.90
2019-03-06T03:33:10.663Z,99.90
2019-03-06T03:35:42.614Z,99.90
2019-03-06T03:38:14.053Z,99.90
2019-03-06T03:40:45.420Z,99.90
2019-03-06T03:43:16.538Z,99.90
2019-03-06T03:45:48.532Z,99.90
2019-03-06T03:48:19.575Z,99.90
2019-03-06T03:50:52.430Z,99.90
2019-03-06T03:53:23.898Z,99.90
2019-03-06T03:55:54.233Z,99.90
2019-03-06T03:58:25.465Z,99.90
2019-03-06T04:00:57.253Z,99.90
2019-03-06T04:03:28.459Z,99.90
2019-03-06T04:06:00.164Z,99.90
2019-03-06T04:08:31.656Z,99.90
2019-03-06T04:11:04.202Z,99.90
2019-03-06T04:13:35.946Z,99.90
2019-03-06T04:16:06.583Z,99.90
2019-03-06T04:18:37.999Z,99.90
2019-03-06T04:21:09.951Z,99.90
2019-03-06T04:23:41.604Z,99.90
2019-03-06T04:26:12.994Z,99.90
2019-03-06T04:28:45.535Z,99.90
2019-03-06T04:31:16.474Z,99.90
2019-03-06T04:33:47.835Z,99.90
2019-03-06T04:36:19.868Z,99.90
2019-03-06T04:38:51.219Z,99.90
2019-03-06T04:41:22.756Z,99.90
2019-03-06T04:43:54.606Z,99.90
2019-03-06T04:46:25.304Z,99.90
2019-03-06T04:48:56.750Z,99.90
2019-03-06T04:51:27.865Z,99.90
2019-03-06T04:53:59.624Z,99.90
2019-03-06T04:56:31.454Z,99.90
2019-03-06T04:59:03.074Z,99.90
2019-03-06T05:01:34.773Z,99.90
2019-03-06T05:04:05.504Z,99.90
2019-03-06T05:06:37.240Z,99.90
2019-03-06T05:09:09.837Z,99.90
2019-03-06T05:11:41.117Z,99.90
2019-03-06T05:14:12.802Z,99.90
2019-03-06T05:16:52.563Z,99.90
2019-03-06T05:19:24.066Z,99.90
2019-03-06T05:21:55.125Z,99.90
2019-03-06T05:24:26.236Z,99.90
2019-03-06T05:26:57.490Z,99.90
2019-03-06T05:29:28.841Z,99.90
2019-03-06T05:32:28.187Z,99.90
2019-03-06T05:35:00.371Z,99.90
2019-03-06T05:37:55.309Z,99.90
2019-03-06T05:40:26.065Z,99.90
2019-03-06T05:42:57.577Z,99.90
2019-03-06T05:46:03.716Z,99.90
2019-03-06T05:48:34.446Z,99.90
2019-03-06T05:51:05.793Z,99.90
2019-03-06T05:53:37.364Z,99.90
2019-03-06T05:56:08.310Z,99.90
2019-03-06T05:58:40.103Z,99.90
2019-03-06T06:01:11.547Z,99.90
2019-03-06T06:03:42.873Z,99.90
2019-03-06T06:06:14.643Z,99.90
2019-03-06T06:08:46.374Z,99.90
2019-03-06T06:11:17.777Z,99.90
2019-03-06T06:13:48.413Z,99.90
2019-03-06T06:16:19.438Z,99.90
2019-03-06T06:18:50.574Z,99.90
2019-03-06T06:21:47.110Z,99.90
2019-03-06T06:24:28.869Z,99.90
2019-03-06T06:27:00.598Z,99.90
2019-03-06T06:29:31.919Z,99.90
2019-03-06T06:32:03.378Z,99.90
2019-03-06T06:34:34.724Z,99.90
2019-03-06T06:37:05.041Z,99.90
2019-03-06T06:39:36.462Z,99.90
2019-03-06T06:42:06.848Z,99.90
2019-03-06T06:44:38.437Z,99.90
2019-03-06T06:47:09.808Z,99.90
2019-03-06T06:49:42.976Z,99.90
2019-03-06T06:53:17.313Z,99.90
2019-03-06T06:57:00.319Z,99.90
2019-03-06T07:00:09.468Z,99.90
2019-03-06T07:04:04.167Z,99.90
2019-03-06T07:07:03.482Z,97.00
2019-03-06T07:10:05.353Z,93.80
2019-03-06T07:12:52.452Z,91.30
2019-03-06T07:15:41.967Z,87.50
2019-03-06T07:18:24.452Z,86.80
2019-03-06T07:21:16.842Z,80.60
2019-03-06T07:24:00.925Z,79.20
2019-03-06T07:26:49.408Z,76.90
2019-03-06T07:29:32.246Z,75.90
2019-03-06T07:32:20.896Z,75.60
2019-03-06T07:35:59.367Z,74.80
2019-03-06T07:38:30.003Z,75.10
2019-03-06T07:41:09.492Z,77.60
2019-03-06T07:44:29.785Z,78.50
2019-03-06T07:47:13.907Z,81.30
2019-03-06T07:50:00.395Z,84.20
2019-03-06T07:52:56.410Z,83.90
2019-03-06T07:55:33.994Z,84.00
2019-03-06T07:59:05.973Z,84.30
2019-03-06T08:01:48.950Z,83.80
2019-03-06T08:04:20.341Z,81.90
2019-03-06T08:07:36.812Z,82.70
2019-03-06T08:10:14.620Z,80.70
2019-03-06T08:12:55.930Z,76.70
2019-03-06T08:15:45.328Z,76.90
2019-03-06T08:18:29.566Z,74.20
2019-03-06T08:21:31.514Z,73.10
2019-03-06T08:24:42.487Z,71.10
2019-03-06T08:27:14.442Z,72.80
2019-03-06T08:29:46.204Z,75.10
2019-03-06T08:32:30.219Z,75.80
2019-03-06T08:35:01.205Z,72.90
2019-03-06T08:37:32.347Z,72.10
2019-03-06T08:40:03.091Z,69.60
2019-03-06T08:42:33.827Z,72.90
2019-03-06T08:45:06.117Z,73.80
2019-03-06T08:47:56.502Z,72.00
2019-03-06T08:50:42.025Z,71.40
2019-03-06T08:53:31.728Z,67.60
2019-03-06T08:56:09.596Z,61.10
2019-03-06T08:59:08.688Z,61.40
2019-03-06T09:02:04.870Z,61.50
2019-03-06T09:04:54.618Z,57.70
2019-03-06T09:07:47.230Z,54.30
2019-03-06T09:10:34.055Z,52.30
2019-03-06T09:13:24.348Z,53.00
2019-03-06T09:16:14.375Z,51.80
2019-03-06T09:18:59.106Z,52.20
2019-03-06T09:21:38.801Z,53.50
2019-03-06T09:24:27.558Z,55.90
2019-03-06T09:27:10.555Z,56.20
2019-03-06T09:30:03.637Z,57.80
2019-03-06T09:32:54.146Z,60.20
2019-03-06T09:35:53.971Z,61.50
2019-03-06T09:38:42.354Z,65.40
2019-03-06T09:41:31.643Z,66.00
2019-03-06T09:44:30.437Z,60.50
2019-03-06T09:47:35.065Z,57.00
2019-03-06T09:50:32.432Z,56.90
2019-03-06T09:53:19.618Z,57.50
2019-03-06T09:56:09.589Z,57.10
2019-03-06T09:58:56.930Z,57.30
2019-03-06T10:01:52.837Z,58.90
2019-03-06T10:05:19.066Z,58.90
2019-03-06T10:08:32.265Z,58.80
2019-03-06T10:11:43.983Z,59.40
2019-03-06T10:14:45.813Z,58.90
2019-03-06T10:18:08.002Z,59.00
2019-03-06T10:21:18.202Z,59.00
2019-03-06T10:24:21.108Z,59.00
2019-03-06T10:27:04.354Z,59.00
2019-03-06T10:30:23.225Z,59.60
2019-03-06T10:33:04.513Z,58.20
2019-03-06T10:36:05.555Z,56.00
2019-03-06T10:38:56.401Z,55.70
2019-03-06T10:41:34.765Z,56.00
2019-03-06T10:44:18.592Z,54.80
2019-03-06T10:47:14.742Z,54.70
2019-03-06T10:49:56.699Z,53.60
2019-03-06T10:52:49.509Z,54.10
2019-03-06T10:55:53.752Z,54.40
2019-03-06T10:58:57.520Z,54.10
2019-03-06T11:01:43.369Z,54.10
2019-03-06T11:05:10.174Z,54.40
2019-03-06T11:07:55.618Z,53.70
2019-03-06T11:10:56.933Z,54.30
2019-03-06T11:13:49.013Z,52.40
2019-03-06T11:16:45.510Z,50.90
2019-03-06T11:19:27.123Z,50.50
2019-03-06T11:22:01.603Z,49.80
2019-03-06T11:24:36.267Z,49.10
2019-03-06T11:27:08.452Z,48.70
2019-03-06T11:29:40.181Z,46.40
2019-03-06T11:32:17.012Z,46.40
2019-03-06T11:34:51.333Z,45.80
2019-03-06T11:40:43.204Z,44.90
2019-03-06T11:43:17.912Z,44.30
2019-03-06T11:45:51.529Z,42.50
2019-03-06T11:48:23.751Z,42.90
2019-03-06T11:50:58.607Z,43.30
2019-03-06T11:53:32.929Z,42.80
2019-03-06T11:56:06.341Z,42.50
2019-03-06T11:58:38.546Z,40.00
2019-03-06T12:01:18.394Z,40.10
2019-03-06T12:03:55.130Z,38.50
2019-03-06T12:06:31.905Z,38.90
2019-03-06T12:09:28.376Z,39.40
2019-03-06T12:12:04.484Z,39.40
2019-03-06T12:14:44.982Z,39.40
2019-03-06T12:17:24.007Z,40.50
2019-03-06T12:19:55.394Z,41.30
2019-03-06T12:22:26.858Z,40.60
2019-03-06T12:24:57.882Z,41.00
2019-03-06T12:27:29.658Z,40.50
2019-03-06T12:30:03.652Z,40.30
2019-03-06T12:32:35.198Z,39.50
2019-03-06T12:35:05.833Z,39.10
2019-03-06T12:37:47.154Z,42.20
2019-03-06T12:40:19.966Z,44.80
2019-03-06T12:42:52.215Z,46.10
2019-03-06T12:45:23.691Z,46.50
2019-03-06T12:48:16.383Z,47.70
2019-03-06T12:50:55.093Z,48.60
2019-03-06T12:53:30.830Z,49.00
2019-03-06T12:56:01.893Z,48.00
2019-03-06T12:58:36.425Z,47.90
2019-03-06T13:01:19.701Z,47.20
2019-03-06T13:03:50.971Z,47.30
2019-03-06T13:06:24.876Z,47.50
2019-03-06T13:08:56.640Z,49.60
2019-03-06T13:11:51.054Z,48.50
2019-03-06T13:14:45.934Z,48.50
2019-03-06T13:17:20.588Z,49.20
2019-03-06T13:19:54.040Z,49.30
2019-03-06T13:22:30.590Z,49.60
2019-03-06T13:25:08.954Z,50.60
2019-03-06T13:27:54.389Z,51.10
2019-03-06T13:30:30.808Z,51.60
2019-03-06T13:33:27.623Z,51.50
2019-03-06T13:36:01.688Z,52.50
2019-03-06T13:38:34.657Z,52.90
2019-03-06T13:41:05.462Z,53.60
2019-03-06T13:43:44.609Z,53.60
2019-03-06T13:46:15.490Z,53.50
2019-03-06T13:48:47.365Z,52.70
2019-03-06T13:51:18.518Z,52.20
2019-03-06T13:53:52.015Z,53.00
2019-03-06T13:56:40.586Z,52.60
2019-03-06T13:59:12.788Z,52.90
2019-03-06T14:01:44.941Z,52.90
2019-03-06T14:04:15.870Z,53.20
2019-03-06T14:06:46.411Z,53.40
2019-03-06T14:09:17.802Z,54.20
2019-03-06T14:11:58.503Z,54.20
2019-03-06T14:14:38.749Z,54.70
2019-03-06T14:17:13.310Z,55.10
2019-03-06T14:19:44.433Z,55.00
2019-03-06T14:22:15.127Z,55.10
2019-03-06T14:24:46.759Z,55.30
2019-03-06T14:27:18.692Z,55.40
2019-03-06T14:29:58.107Z,55.60
2019-03-06T14:32:30.234Z,56.10
2019-03-06T14:35:01.306Z,55.80
2019-03-06T14:37:34.267Z,55.40
2019-03-06T14:40:09.740Z,55.80
2019-03-06T14:42:39.097Z,56.50
2019-03-06T14:45:12.332Z,56.90
2019-03-06T14:47:43.176Z,56.90
2019-03-06T14:50:14.259Z,56.90
2019-03-06T14:52:45.755Z,57.00
2019-03-06T14:55:16.909Z,57.00
2019-03-06T14:57:48.513Z,56.60
2019-03-06T15:00:20.128Z,56.60
2019-03-06T15:02:51.213Z,57.00
2019-03-06T15:05:22.557Z,57.00
2019-03-06T15:07:53.543Z,56.90
2019-03-06T15:10:25.722Z,57.00
2019-03-06T15:12:56.654Z,56.50
2019-03-06T15:15:28.101Z,56.90
2019-03-06T15:18:16.905Z,57.10
2019-03-06T15:20:47.552Z,57.00
2019-03-06T15:23:18.736Z,57.90
2019-03-06T15:25:49.691Z,57.60
2019-03-06T15:28:22.582Z,57.20
2019-03-06T15:30:53.958Z,56.60
2019-03-06T15:33:25.336Z,56.20
2019-03-06T15:35:57.059Z,56.50
2019-03-06T15:38:28.679Z,56.50
2019-03-06T15:40:59.722Z,56.20
2019-03-06T15:43:31.238Z,56.60
2019-03-06T15:46:01.889Z,55.60
2019-03-06T15:48:35.744Z,55.70
2019-03-06T15:51:07.464Z,55.10
2019-03-06T15:53:38.380Z,55.20
2019-03-06T15:56:09.754Z,54.20
2019-03-06T15:58:41.708Z,53.50
2019-03-06T16:01:12.345Z,53.40
2019-03-06T16:03:44.271Z,53.70
2019-03-06T16:06:20.289Z,50.80
2019-03-06T16:08:49.021Z,51.30
2019-03-06T16:11:23.610Z,51.20
2019-03-06T16:13:55.128Z,50.30
2019-03-06T16:16:25.851Z,50.50
2019-03-06T16:18:57.326Z,51.00
2019-03-06T16:21:28.389Z,51.80
2019-03-06T16:24:03.275Z,53.10
2019-03-06T16:26:34.294Z,54.00
2019-03-06T16:29:05.534Z,54.30
2019-03-06T16:31:38.757Z,55.60
2019-03-06T16:34:09.905Z,56.40
2019-03-06T16:36:44.611Z,57.00
2019-03-06T16:39:18.590Z,58.10
2019-03-06T16:41:50.330Z,58.60
2019-03-06T16:44:20.946Z,59.10
2019-03-06T16:46:52.229Z,59.80
2019-03-06T16:49:22.908Z,60.50
2019-03-06T16:52:16.784Z,61.00
2019-03-06T16:54:47.848Z,61.00
2019-03-06T16:57:19.057Z,61.90
2019-03-06T16:59:50.418Z,61.80
2019-03-06T17:02:22.026Z,62.70
2019-03-06T17:04:53.426Z,62.80
2019-03-06T17:07:26.707Z,63.20
2019-03-06T17:09:58.499Z,63.00
2019-03-06T17:12:29.592Z,62.80
2019-03-06T17:15:01.058Z,64.30
2019-03-06T17:17:33.128Z,63.90
2019-03-06T17:20:03.830Z,64.70
2019-03-06T17:22:35.094Z,65.10
2019-03-06T17:25:09.705Z,66.20
2019-03-06T17:27:58.993Z,66.30
2019-03-06T17:30:32.101Z,66.80
2019-03-06T17:33:10.490Z,66.10
2019-03-06T17:35:49.616Z,68.90
2019-03-06T17:38:20.988Z,69.80
2019-03-06T17:40:56.460Z,70.00
2019-03-06T17:43:29.119Z,70.50
2019-03-06T17:46:00.109Z,70.20
2019-03-06T17:48:34.197Z,70.50
2019-03-06T17:51:05.181Z,71.60
2019-03-06T17:53:36.266Z,72.50
2019-03-06T17:56:07.032Z,71.70
2019-03-06T17:58:37.697Z,72.40
2019-03-06T18:01:18.073Z,74.10
2019-03-06T18:04:14.792Z,74.10
2019-03-06T18:06:45.663Z,73.20
2019-03-06T18:09:17.194Z,74.00
2019-03-06T18:11:48.214Z,74.40
2019-03-06T18:14:21.547Z,73.90
2019-03-06T18:16:52.863Z,74.80
2019-03-06T18:19:23.901Z,75.40
2019-03-06T18:21:55.457Z,75.30
2019-03-06T18:24:28.417Z,76.30
2019-03-06T18:27:00.509Z,76.70
2019-03-06T18:29:32.785Z,77.20
2019-03-06T18:32:03.901Z,76.60
2019-03-06T18:34:34.856Z,76.70
2019-03-06T18:37:06.571Z,77.40
2019-03-06T18:39:37.907Z,77.40
2019-03-06T18:42:08.563Z,77.80
2019-03-06T18:44:39.931Z,78.00
2019-03-06T18:47:10.547Z,78.00
2019-03-06T18:49:42.058Z,78.20
2019-03-06T18:52:15.331Z,78.10
2019-03-06T18:54:48.537Z,78.00
2019-03-06T18:57:20.666Z,78.60
2019-03-06T18:59:53.094Z,78.80
2019-03-06T19:02:24.593Z,79.20
2019-03-06T19:04:58.880Z,79.80
2019-03-06T19:07:30.298Z,79.80
2019-03-06T19:10:01.304Z,79.70
2019-03-06T19:12:36.273Z,79.90
2019-03-06T19:15:09.078Z,79.90
2019-03-06T19:17:41.125Z,79.50
2019-03-06T19:20:14.925Z,80.00
2019-03-06T19:22:48.919Z,79.90
2019-03-06T19:25:20.831Z,79.90
2019-03-06T19:27:53.884Z,80.20
2019-03-06T19:30:24.576Z,80.40
2019-03-06T19:32:56.753Z,80.30
2019-03-06T19:35:39.078Z,80.50
2019-03-06T19:38:10.547Z,80.80
2019-03-06T19:40:42.177Z,81.50
2019-03-06T19:43:13.187Z,81.70
2019-03-06T19:45:44.165Z,81.80
2019-03-06T19:48:18.803Z,82.40
2019-03-06T19:50:51.608Z,82.70
2019-03-06T19:53:22.562Z,82.90
2019-03-06T19:55:54.208Z,82.10
2019-03-06T19:58:29.923Z,82.10
2019-03-06T20:01:02.687Z,81.90
2019-03-06T20:03:35.939Z,81.90
2019-03-06T20:06:17.050Z,83.00
2019-03-06T20:08:49.671Z,82.90
2019-03-06T20:11:22.086Z,82.60
2019-03-06T20:14:17.874Z,82.90
2019-03-06T20:16:48.774Z,82.80
2019-03-06T20:19:22.702Z,82.80
2019-03-06T20:21:54.048Z,83.40
2019-03-06T20:24:25.910Z,84.40
2019-03-06T20:26:57.032Z,84.20
2019-03-06T20:29:28.947Z,83.50
2019-03-06T20:32:00.411Z,83.30
2019-03-06T20:34:32.407Z,82.80
2019-03-06T20:37:06.233Z,82.70
2019-03-06T20:39:46.221Z,82.80
2019-03-06T20:42:17.547Z,83.40
2019-03-06T20:44:49.444Z,83.10
2019-03-06T20:47:23.610Z,83.50
2019-03-06T20:49:57.874Z,83.80
2019-03-06T20:52:30.334Z,83.50
2019-03-06T20:55:05.749Z,84.30
2019-03-06T20:57:40.427Z,84.40
2019-03-06T21:00:24.799Z,84.80
2019-03-06T21:02:59.755Z,84.60
2019-03-06T21:05:31.453Z,84.70
2019-03-06T21:08:05.273Z,86.00
2019-03-06T21:10:38.335Z,85.20
2019-03-06T21:13:09.352Z,84.90
2019-03-06T21:15:42.328Z,85.20
2019-03-06T21:18:14.428Z,85.80
2019-03-06T21:20:49.486Z,86.40
2019-03-06T21:23:21.920Z,86.30
2019-03-06T21:25:52.953Z,86.40
2019-03-06T21:28:30.860Z,87.40
2019-03-06T21:31:01.939Z,87.20
2019-03-06T21:33:32.691Z,87.20
2019-03-06T21:36:04.266Z,88.50
2019-03-06T21:38:38.245Z,89.10
2019-03-06T21:41:33.490Z,89.80
2019-03-06T21:44:09.851Z,89.80
2019-03-06T21:46:52.634Z,89.70
2019-03-06T21:49:27.108Z,89.60
2019-03-06T21:52:03.766Z,90.10
2019-03-06T21:54:41.591Z,90.40
2019-03-06T21:57:12.651Z,90.50
2019-03-06T21:59:46.212Z,90.70
2019-03-06T22:02:16.879Z,90.80
2019-03-06T22:04:49.962Z,91.20
2019-03-06T22:07:24.214Z,91.50
2019-03-06T22:09:57.091Z,91.70
2019-03-06T22:12:28.516Z,91.40
2019-03-06T22:14:59.377Z,91.40
2019-03-06T22:17:41.954Z,91.50
2019-03-06T22:20:14.020Z,91.60
2019-03-06T22:22:46.877Z,91.70
2019-03-06T22:25:18.054Z,91.70
2019-03-06T22:27:49.554Z,91.70
2019-03-06T22:30:22.405Z,91.80
2019-03-06T22:32:53.559Z,92.10
2019-03-06T22:35:23.931Z,92.20
2019-03-06T22:37:57.265Z,92.20
2019-03-06T22:40:28.326Z,92.30
2019-03-06T22:43:00.106Z,92.40
2019-03-06T22:45:31.387Z,92.70
2019-03-06T22:48:04.153Z,92.70
2019-03-06T22:50:36.810Z,92.90
2019-03-06T22:53:08.847Z,92.70
2019-03-06T22:55:42.076Z,92.60
2019-03-06T22:58:13.406Z,93.00
2019-03-06T23:00:59.252Z,93.50
2019-03-06T23:03:31.855Z,93.20
2019-03-06T23:06:02.844Z,93.70
2019-03-06T23:08:34.443Z,94.00
2019-03-06T23:11:06.061Z,94.10
2019-03-06T23:13:45.740Z,94.30
2019-03-06T23:16:16.831Z,94.80
2019-03-06T23:18:50.677Z,95.10
2019-03-06T23:21:21.681Z,95.30
2019-03-06T23:23:53.042Z,95.80
2019-03-06T23:26:24.459Z,96.10
2019-03-06T23:28:55.184Z,96.50
2019-03-06T23:31:26.502Z,96.90
2019-03-06T23:33:58.078Z,97.20
2019-03-06T23:36:32.322Z,97.70
2019-03-06T23:39:03.499Z,98.00
2019-03-06T23:41:41.410Z,98.70
2019-03-06T23:44:35.534Z,98.90
2019-03-06T23:47:28.498Z,99.80
2019-03-06T23:50:01.394Z,99.90
2019-03-06T23:52:56.527Z,99.90
2019-03-06T23:55:29.890Z,99.90
2019-03-06T23:58:10.259Z,99.90
